Time;durP1;ratioP1;P1;durP2;ratioP2;P2;SDS_P1;SDS_P2;PMS_P1;PMS_P2;Temp;Humidity;BMP_temperature;BMP_pressure;BME280_temperature;BME280_humidity;BME280_pressure;Samples;Min_cycle;Max_cycle;Signal;HPM_P1;HPM_P2
2024/02/21 00:01:07;;;;;;;;;13.75;11.00;;;;;10.50;74.15;101965.22;5069333;28;45565;-66
2024/02/21 00:03:33;;;;;;;;;12.75;10.25;;;;;10.50;74.76;101968.75;5072891;27;71847;-66
2024/02/21 00:05:58;;;;;;;;;17.00;12.75;;;;;10.52;74.90;101966.13;5069878;27;45531;-65
2024/02/21 00:08:23;;;;;;;;;14.00;10.75;;;;;10.57;75.01;101965.19;5070351;27;68104;-66
2024/02/21 00:10:49;;;;;;;;;13.50;12.75;;;;;10.61;74.74;101960.81;5071598;28;73179;-66
2024/02/21 00:13:14;;;;;;;;;14.75;11.75;;;;;10.59;74.93;101955.59;5073588;28;48525;-66
2024/02/21 00:15:39;;;;;;;;;25.25;16.00;;;;;10.63;74.49;101957.28;5070043;27;45445;-66
2024/02/21 00:18:05;;;;;;;;;14.25;12.25;;;;;10.66;74.53;101974.75;5060466;28;65770;-66
2024/02/21 00:20:30;;;;;;;;;14.00;12.50;;;;;10.65;74.72;101965.13;5075507;28;45589;-66
2024/02/21 00:22:56;;;;;;;;;17.00;14.00;;;;;10.71;74.76;101953.75;5073164;28;45520;-65
2024/02/21 00:25:21;;;;;;;;;21.25;13.00;;;;;10.71;74.52;101943.25;5065474;28;45350;-66
2024/02/21 00:27:47;;;;;;;;;19.75;14.50;;;;;10.71;74.48;101954.63;5068793;28;45489;-66
2024/02/21 00:30:12;;;;;;;;;15.25;12.25;;;;;10.74;74.56;101948.50;5053075;28;45710;-66
2024/02/21 00:32:38;;;;;;;;;19.50;15.00;;;;;10.73;74.49;101950.25;5060458;28;45279;-66
2024/02/21 00:35:03;;;;;;;;;19.25;12.00;;;;;10.73;74.59;101941.50;5060852;28;45385;-66
2024/02/21 00:37:28;;;;;;;;;17.50;15.00;;;;;10.69;74.27;101940.66;5073151;28;45492;-66
2024/02/21 00:39:54;;;;;;;;;14.75;12.50;;;;;10.64;74.47;101934.59;5067512;28;70814;-66
2024/02/21 00:42:21;;;;;;;;;18.25;15.75;;;;;10.62;74.56;101938.97;5072828;28;47128;-66
2024/02/21 00:44:46;;;;;;;;;17.50;15.75;;;;;10.61;74.66;101930.25;5060470;28;45481;-66
2024/02/21 00:47:12;;;;;;;;;15.00;14.00;;;;;10.57;74.65;101918.09;5073217;27;45580;-66
2024/02/21 00:49:37;;;;;;;;;18.25;15.00;;;;;10.56;74.77;101918.09;5062672;28;45504;-66
2024/02/21 00:52:02;;;;;;;;;19.75;15.25;;;;;10.53;74.50;101908.50;5065820;28;74158;-66
2024/02/21 00:54:28;;;;;;;;;16.75;15.00;;;;;10.50;74.63;101900.69;5077657;28;45355;-66
2024/02/21 00:56:53;;;;;;;;;17.75;14.25;;;;;10.47;74.93;101903.31;5073739;27;56382;-66
2024/02/21 00:59:18;;;;;;;;;20.75;16.50;;;;;10.48;75.00;101901.56;5059081;28;73702;-66
2024/02/21 01:01:44;;;;;;;;;19.75;13.75;;;;;10.45;74.65;101892.88;5068489;28;45995;-67
2024/02/21 01:04:09;;;;;;;;;19.00;13.50;;;;;10.46;74.79;101880.63;5064941;27;72142;-65
2024/02/21 01:06:35;;;;;;;;;19.00;14.50;;;;;10.48;74.66;101878.88;5071048;27;61987;-66
2024/02/21 01:09:00;;;;;;;;;17.25;14.25;;;;;10.50;75.08;101878.88;5045628;28;65562;-66
2024/02/21 01:11:25;;;;;;;;;16.25;12.75;;;;;10.53;74.82;101878.84;5067203;28;62385;-66
2024/02/21 01:13:51;;;;;;;;;14.50;14.50;;;;;10.52;74.89;101874.50;5063111;27;73100;-65
2024/02/21 01:16:16;;;;;;;;;16.00;12.00;;;;;10.51;74.84;101857.91;5062161;28;69296;-66
2024/02/21 01:18:41;;;;;;;;;15.75;12.75;;;;;10.52;74.68;101853.56;5075240;27;72137;-65
2024/02/21 01:21:07;;;;;;;;;13.50;12.00;;;;;10.52;74.65;101861.44;5071402;27;47276;-66
2024/02/21 01:23:36;;;;;;;;;18.50;14.25;;;;;10.51;74.63;101865.78;5073889;28;45453;-66
2024/02/21 01:26:03;;;;;;;;;19.50;13.00;;;;;10.51;74.53;101850.06;5076805;27;45715;-65
2024/02/21 01:28:28;;;;;;;;;20.25;14.25;;;;;10.51;74.65;101831.75;5070784;28;45652;-66
2024/02/21 01:30:54;;;;;;;;;17.00;11.50;;;;;10.52;74.49;101851.81;5068809;28;75337;-66
2024/02/21 01:33:19;;;;;;;;;22.50;12.00;;;;;10.53;74.78;101866.63;5050053;28;57799;-66
2024/02/21 01:35:44;;;;;;;;;22.50;15.25;;;;;10.52;74.85;101864.03;5064840;27;45491;-65
2024/02/21 01:38:12;;;;;;;;;20.00;14.25;;;;;10.55;74.58;101858.75;5084719;27;45516;-66
2024/02/21 01:40:37;;;;;;;;;14.00;12.00;;;;;10.58;74.70;101856.13;5068771;28;45318;-66
2024/02/21 01:43:03;;;;;;;;;14.75;12.50;;;;;10.58;74.50;101859.59;5075854;28;73240;-66
2024/02/21 01:45:28;;;;;;;;;15.00;13.00;;;;;10.57;74.33;101850.03;5061576;28;45192;-66
2024/02/21 01:47:53;;;;;;;;;16.75;13.75;;;;;10.57;74.73;101842.19;5055744;28;45558;-66
2024/02/21 01:50:19;;;;;;;;;16.75;12.75;;;;;10.59;74.27;101850.88;5076797;28;45527;-67
2024/02/21 01:52:46;;;;;;;;;13.25;10.50;;;;;10.58;74.29;101843.03;5081793;27;56189;-66
2024/02/21 01:55:13;;;;;;;;;16.75;13.75;;;;;10.60;74.18;101831.66;5072361;28;45540;-66
2024/02/21 01:57:39;;;;;;;;;18.50;14.50;;;;;10.60;74.30;101815.94;5081984;27;45690;-66
2024/02/21 02:00:05;;;;;;;;;15.00;10.75;;;;;10.59;73.88;101816.00;5083058;27;47350;-66
2024/02/21 02:02:30;;;;;;;;;18.75;15.25;;;;;10.53;74.22;101803.81;5060400;28;45483;-67
2024/02/21 02:04:56;;;;;;;;;16.25;13.25;;;;;10.50;74.10;101797.72;5070437;28;45329;-66
2024/02/21 02:07:22;;;;;;;;;16.00;14.00;;;;;10.52;74.20;101801.22;5066576;27;45404;-66
2024/02/21 02:09:47;;;;;;;;;16.75;15.75;;;;;10.50;73.97;101779.41;5061694;28;45907;-66
2024/02/21 02:12:13;;;;;;;;;19.50;15.00;;;;;10.53;74.32;101779.38;5069179;28;68113;-66
2024/02/21 02:14:38;;;;;;;;;21.25;15.00;;;;;10.50;74.02;101784.66;5073678;27;46167;-65
2024/02/21 02:17:04;;;;;;;;;16.50;13.50;;;;;10.48;74.29;101779.41;5069966;27;45298;-65
2024/02/21 02:19:29;;;;;;;;;17.00;12.75;;;;;10.43;74.09;101763.78;5068815;28;45360;-66
2024/02/21 02:22:00;;;;;;;;;17.75;13.50;;;;;10.40;73.77;101776.88;5072074;28;45632;-67
2024/02/21 02:24:26;;;;;;;;;17.25;14.50;;;;;10.38;73.98;101764.72;5073888;27;45777;-66
2024/02/21 02:26:51;;;;;;;;;15.75;11.75;;;;;10.35;74.29;101762.97;5072978;27;45586;-66
2024/02/21 02:29:17;;;;;;;;;22.00;15.75;;;;;10.31;73.96;101761.28;5069749;28;70872;-66
2024/02/21 02:31:42;;;;;;;;;12.25;11.00;;;;;10.33;74.13;101766.50;5068883;28;45202;-66
2024/02/21 02:34:08;;;;;;;;;17.00;13.00;;;;;10.29;74.47;101763.03;5069274;28;45262;-66
2024/02/21 02:36:33;;;;;;;;;16.00;13.00;;;;;10.29;74.37;101754.28;5069320;27;45622;-66
2024/02/21 02:38:59;;;;;;;;;14.00;12.50;;;;;10.33;74.19;101767.38;5070486;28;45383;-66
2024/02/21 02:41:24;;;;;;;;;14.75;13.00;;;;;10.35;74.46;101765.59;5071768;28;45647;-66
2024/02/21 02:43:49;;;;;;;;;13.75;10.25;;;;;10.35;74.54;101762.97;5069127;28;45358;-66
2024/02/21 02:46:15;;;;;;;;;19.00;12.50;;;;;10.35;74.39;101743.81;5062744;27;45528;-66
2024/02/21 02:48:40;;;;;;;;;14.75;11.25;;;;;10.36;74.32;101738.56;5062980;28;46070;-66
2024/02/21 02:51:06;;;;;;;;;19.00;12.75;;;;;10.39;74.41;101730.69;5066594;28;51904;-66
2024/02/21 02:53:31;;;;;;;;;18.00;13.75;;;;;10.41;73.99;101738.50;5074841;28;47211;-66
2024/02/21 02:55:56;;;;;;;;;15.00;13.50;;;;;10.40;74.46;101732.41;5069814;27;45532;-65
2024/02/21 02:58:22;;;;;;;;;17.75;14.25;;;;;10.46;74.09;101731.47;5075796;27;56956;-66
2024/02/21 03:00:47;;;;;;;;;15.00;13.50;;;;;10.48;74.68;101716.63;5066171;28;45407;-65
2024/02/21 03:03:12;;;;;;;;;15.00;14.00;;;;;10.50;73.96;101707.03;5059689;28;45327;-66
2024/02/21 03:05:38;;;;;;;;;16.50;14.25;;;;;10.51;73.91;101705.25;5062119;28;45558;-66
2024/02/21 03:08:06;;;;;;;;;16.75;14.75;;;;;10.51;73.81;101702.66;5062257;28;74790;-66
2024/02/21 03:10:35;;;;;;;;;21.25;14.00;;;;;10.51;74.02;101690.41;5055209;28;45332;-65
2024/02/21 03:13:00;;;;;;;;;16.50;13.00;;;;;10.52;73.79;101683.47;5060163;28;45449;-66
2024/02/21 03:15:25;;;;;;;;;17.75;14.00;;;;;10.49;73.72;101673.00;5050899;28;45659;-66
2024/02/21 03:17:51;;;;;;;;;15.50;13.25;;;;;10.49;73.76;101670.41;5074391;27;73535;-65
2024/02/21 03:20:16;;;;;;;;;16.25;14.25;;;;;10.47;73.86;101674.78;5074158;27;72188;-65
2024/02/21 03:22:41;;;;;;;;;22.50;16.75;;;;;10.47;74.00;101661.69;5056398;28;45521;-65
2024/02/21 03:25:12;;;;;;;;;16.00;14.00;;;;;10.48;73.91;101648.56;5062770;27;47336;-66
2024/02/21 03:27:37;;;;;;;;;19.75;15.50;;;;;10.48;73.86;101642.47;5064345;27;45368;-65
2024/02/21 03:30:04;;;;;;;;;25.25;15.75;;;;;10.48;73.74;101645.94;5066932;27;45536;-66
2024/02/21 03:32:29;;;;;;;;;21.00;13.25;;;;;10.48;73.87;101643.34;5058312;28;45324;-66
2024/02/21 03:34:55;;;;;;;;;15.00;12.25;;;;;10.49;73.80;101641.59;5075838;28;70533;-67
2024/02/21 03:37:20;;;;;;;;;15.50;13.50;;;;;10.47;73.57;101635.53;5075654;27;65818;-66
2024/02/21 03:39:46;;;;;;;;;22.75;14.50;;;;;10.46;73.70;101624.19;5064335;28;73716;-66
2024/02/21 03:42:11;;;;;;;;;18.50;15.00;;;;;10.49;73.68;101618.91;5079650;27;45621;-65
2024/02/21 03:44:36;;;;;;;;;18.75;11.25;;;;;10.50;73.84;101630.25;5076592;28;45578;-65
2024/02/21 03:47:02;;;;;;;;;12.25;9.75;;;;;10.48;73.48;101635.47;5058061;28;46911;-66
2024/02/21 03:49:27;;;;;;;;;19.00;15.00;;;;;10.48;73.72;101648.56;5068961;28;45919;-66
2024/02/21 03:51:53;;;;;;;;;16.25;13.25;;;;;10.48;73.48;101632.88;5070068;28;45374;-66
2024/02/21 03:54:18;;;;;;;;;15.00;12.00;;;;;10.42;73.50;101622.50;5054788;28;45557;-67
2024/02/21 03:56:44;;;;;;;;;13.50;12.00;;;;;10.45;73.73;101640.78;5047995;28;48053;-65
2024/02/21 03:59:09;;;;;;;;;16.75;13.00;;;;;10.46;73.56;101639.88;5070452;28;45478;-65
2024/02/21 04:01:35;;;;;;;;;14.50;12.25;;;;;10.45;73.56;101635.53;5086507;27;56453;-65
2024/02/21 04:04:00;;;;;;;;;16.75;12.00;;;;;10.48;73.66;101637.25;5074642;28;45418;-65
2024/02/21 04:06:26;;;;;;;;;14.25;11.75;;;;;10.48;73.53;101637.25;5076600;27;45512;-65
2024/02/21 04:08:51;;;;;;;;;17.25;12.00;;;;;10.48;73.59;101624.16;5074508;28;73063;-65
2024/02/21 04:11:18;;;;;;;;;22.00;13.50;;;;;10.49;73.26;101634.63;5066409;28;55469;-66
2024/02/21 04:13:44;;;;;;;;;21.00;13.50;;;;;10.45;73.48;101628.56;5068738;28;45406;-65
2024/02/21 04:16:09;;;;;;;;;18.00;13.00;;;;;10.45;73.53;101631.16;5064184;27;46257;-66
2024/02/21 04:18:34;;;;;;;;;13.50;12.50;;;;;10.45;73.42;101630.31;5059274;28;63496;-65
2024/02/21 04:21:00;;;;;;;;;12.50;11.25;;;;;10.43;73.58;101619.88;5061693;28;55923;-65
2024/02/21 04:23:25;;;;;;;;;18.25;13.00;;;;;10.43;73.39;101609.41;5068303;28;71515;-66
2024/02/21 04:25:50;;;;;;;;;15.00;13.00;;;;;10.43;73.78;101613.78;5062957;27;65579;-65
2024/02/21 04:28:15;;;;;;;;;15.00;13.00;;;;;10.38;73.22;101595.50;5069946;28;73541;-65
2024/02/21 04:30:41;;;;;;;;;15.25;12.25;;;;;10.34;73.19;101580.72;5077132;28;71336;-65
2024/02/21 04:33:06;;;;;;;;;17.25;14.50;;;;;10.31;73.52;101587.72;5076954;28;70711;-65
2024/02/21 04:35:31;;;;;;;;;18.00;13.75;;;;;10.29;73.78;101603.44;5069304;27;73989;-66
2024/02/21 04:37:57;;;;;;;;;16.50;14.75;;;;;10.29;73.54;101613.00;5075365;27;65417;-65
2024/02/21 04:40:22;;;;;;;;;15.25;13.75;;;;;10.29;73.82;101602.53;5065458;28;69345;-65
2024/02/21 04:42:47;;;;;;;;;15.75;13.25;;;;;10.29;73.87;101592.06;5086941;27;45417;-65
2024/02/21 04:45:13;;;;;;;;;21.25;14.50;;;;;10.27;73.60;101579.03;5065940;28;45447;-66
2024/02/21 04:47:38;;;;;;;;;21.50;15.75;;;;;10.24;73.63;101559.00;5067941;28;69186;-65
2024/02/21 04:50:04;;;;;;;;;15.00;13.75;;;;;10.16;73.80;101584.38;5065235;28;68251;-66
2024/02/21 04:52:29;;;;;;;;;14.75;12.00;;;;;10.16;73.98;101583.53;5062843;28;46357;-66
2024/02/21 04:54:55;;;;;;;;;13.25;11.50;;;;;10.16;73.68;101583.53;5067867;28;45827;-65
2024/02/21 04:57:20;;;;;;;;;22.00;13.00;;;;;10.14;74.11;101588.75;5050668;28;45491;-66
2024/02/21 04:59:47;;;;;;;;;21.00;14.50;;;;;10.12;74.05;101594.91;5064753;28;67298;-65
2024/02/21 05:02:13;;;;;;;;;17.25;13.00;;;;;10.12;73.92;101585.31;5062273;28;45605;-66
2024/02/21 05:04:38;;;;;;;;;20.75;12.50;;;;;10.10;74.07;101579.22;5072775;27;46444;-66
2024/02/21 05:07:05;;;;;;;;;15.25;13.75;;;;;10.07;73.99;101567.06;5068401;27;54084;-66
2024/02/21 05:09:30;;;;;;;;;18.25;13.25;;;;;10.05;74.43;101550.50;5071443;27;45265;-66
2024/02/21 05:11:55;;;;;;;;;14.25;12.00;;;;;10.01;74.28;101548.81;5073626;27;45605;-67
2024/02/21 05:14:21;;;;;;;;;16.00;13.00;;;;;9.99;74.22;101554.97;5081043;27;48146;-66
2024/02/21 05:16:46;;;;;;;;;16.50;13.00;;;;;9.93;74.66;101552.41;5075864;27;45435;-66
2024/02/21 05:19:12;;;;;;;;;16.00;13.50;;;;;9.95;74.68;101550.63;5068913;27;46083;-65
2024/02/21 05:21:37;;;;;;;;;18.50;12.75;;;;;9.93;74.58;101555.88;5060874;27;68920;-67
2024/02/21 05:24:02;;;;;;;;;20.00;13.00;;;;;9.91;74.67;101551.56;5051933;28;47013;-66
2024/02/21 05:26:28;;;;;;;;;13.25;11.75;;;;;9.87;74.69;101548.97;5079500;27;45423;-66
2024/02/21 05:28:53;;;;;;;;;14.00;10.00;;;;;9.86;74.74;101533.28;5056852;28;45531;-66
2024/02/21 05:31:19;;;;;;;;;20.00;15.00;;;;;9.85;74.93;101536.81;5066785;27;65028;-66
2024/02/21 05:33:44;;;;;;;;;14.75;14.00;;;;;9.82;74.82;101532.47;5085772;27;46203;-65
2024/02/21 05:36:10;;;;;;;;;20.75;15.00;;;;;9.81;75.16;101528.13;5083769;27;45485;-65
2024/02/21 05:38:36;;;;;;;;;20.00;12.75;;;;;9.82;75.18;101542.06;5064101;28;45662;-66
2024/02/21 05:41:01;;;;;;;;;13.50;12.25;;;;;9.83;75.46;101535.97;5056310;28;45445;-66
2024/02/21 05:43:26;;;;;;;;;16.50;12.75;;;;;9.82;75.31;101505.47;5061452;28;62594;-65
2024/02/21 05:45:52;;;;;;;;;16.50;13.00;;;;;9.84;75.22;101504.59;5074168;27;46075;-68
2024/02/21 05:48:17;;;;;;;;;15.50;12.25;;;;;9.85;75.33;101526.34;5072639;28;60049;-66
2024/02/21 05:50:42;;;;;;;;;17.50;13.00;;;;;9.86;75.52;101509.75;5067972;28;71933;-67
2024/02/21 05:53:08;;;;;;;;;16.25;14.00;;;;;9.88;75.47;101492.34;5057054;28;46671;-66
2024/02/21 05:55:33;;;;;;;;;19.50;13.25;;;;;9.89;75.22;101517.59;5070930;28;73033;-66
2024/02/21 05:57:58;;;;;;;;;20.00;12.50;;;;;9.88;75.30;101508.88;5071959;28;45376;-65
2024/02/21 06:00:24;;;;;;;;;17.00;12.75;;;;;9.89;75.25;101510.59;5074577;28;64890;-65
2024/02/21 06:02:49;;;;;;;;;13.00;11.50;;;;;9.88;75.27;101511.50;5071491;28;74064;-66
2024/02/21 06:05:15;;;;;;;;;13.00;11.75;;;;;9.88;75.30;101513.25;5063544;28;45447;-67
2024/02/21 06:07:40;;;;;;;;;16.50;12.00;;;;;9.82;75.49;101490.63;5068116;27;46006;-66
2024/02/21 06:10:06;;;;;;;;;16.00;10.25;;;;;9.87;75.38;101508.91;5060521;28;73209;-66
2024/02/21 06:12:32;;;;;;;;;14.25;11.00;;;;;9.84;75.49;101488.00;5064526;28;45456;-67
2024/02/21 06:14:57;;;;;;;;;14.25;12.75;;;;;9.84;75.30;101494.13;5063791;28;73163;-66
2024/02/21 06:17:22;;;;;;;;;14.00;13.00;;;;;9.81;75.34;101472.34;5079839;27;68278;-66
2024/02/21 06:19:48;;;;;;;;;15.25;12.50;;;;;9.80;75.53;101475.88;5068258;28;73295;-66
2024/02/21 06:22:13;;;;;;;;;13.25;12.00;;;;;9.79;75.44;101447.97;5063445;28;74533;-65
2024/02/21 06:24:38;;;;;;;;;14.00;13.00;;;;;9.75;75.55;101436.69;5063471;28;47950;-65
2024/02/21 06:27:05;;;;;;;;;13.50;10.50;;;;;9.74;75.71;101437.59;5071238;27;45733;-66
2024/02/21 06:29:31;;;;;;;;;15.00;13.00;;;;;9.73;75.64;101427.16;5069626;28;46086;-66
2024/02/21 06:31:57;;;;;;;;;15.25;14.00;;;;;9.70;75.76;101438.50;5071271;28;47074;-65
2024/02/21 06:34:22;;;;;;;;;14.50;10.00;;;;;9.68;76.11;101440.28;5064032;28;45356;-67
2024/02/21 06:36:47;;;;;;;;;18.25;11.50;;;;;9.65;76.33;101448.16;5074011;27;45469;-64
2024/02/21 06:39:13;;;;;;;;;16.50;12.00;;;;;9.64;76.34;101442.06;5076304;27;53502;-68
2024/02/21 06:41:38;;;;;;;;;17.25;13.00;;;;;9.64;76.44;101449.91;5064772;28;46094;-68
2024/02/21 06:44:03;;;;;;;;;14.50;13.75;;;;;9.64;76.33;101455.13;5072167;28;73632;-68
2024/02/21 06:46:29;;;;;;;;;20.00;15.25;;;;;9.64;76.47;101444.69;5071389;27;45393;-68
2024/02/21 06:48:59;;;;;;;;;12.25;12.00;;;;;9.64;76.52;101434.22;5069814;28;45316;-66
2024/02/21 06:51:25;;;;;;;;;12.50;11.25;;;;;9.63;76.55;101437.72;5060821;28;48031;-65
2024/02/21 06:53:50;;;;;;;;;13.00;8.00;;;;;9.63;76.42;101436.84;5075860;28;45453;-66
2024/02/21 06:56:16;;;;;;;;;15.75;12.25;;;;;9.61;76.43;101425.56;5076498;27;45421;-68
2024/02/21 06:58:41;;;;;;;;;14.25;11.75;;;;;9.64;76.52;101423.78;5060509;28;48638;-66
2024/02/21 07:01:07;;;;;;;;;15.00;9.50;;;;;9.63;76.48;101427.28;5071110;28;45963;-66
2024/02/21 07:03:32;;;;;;;;;11.75;9.25;;;;;9.61;76.68;101426.41;5049469;28;45464;-67
2024/02/21 07:05:58;;;;;;;;;14.00;11.25;;;;;9.64;76.76;101422.91;5058618;27;64373;-65
2024/02/21 07:08:23;;;;;;;;;14.75;11.00;;;;;9.62;76.48;101409.88;5068649;28;45384;-65
2024/02/21 07:10:48;;;;;;;;;14.50;10.00;;;;;9.60;76.49;101392.47;5069815;27;75697;-67
2024/02/21 07:13:15;;;;;;;;;10.75;8.75;;;;;9.66;76.52;101397.63;5076683;27;65917;-69
2024/02/21 07:15:41;;;;;;;;;15.00;11.25;;;;;9.68;76.41;101394.13;5078553;27;45370;-66
2024/02/21 07:18:06;;;;;;;;;14.75;10.75;;;;;9.69;76.35;101395.84;5072441;27;45856;-65
2024/02/21 07:20:33;;;;;;;;;14.00;8.25;;;;;9.69;76.61;101394.97;5077255;27;50151;-68
2024/02/21 07:22:59;;;;;;;;;9.25;8.50;;;;;9.69;76.29;101401.06;5067896;27;45988;-65
2024/02/21 07:25:24;;;;;;;;;13.75;9.50;;;;;9.69;76.56;101402.81;5078867;27;45545;-72
2024/02/21 07:27:50;;;;;;;;;19.00;11.25;;;;;9.72;76.43;101409.75;5067524;27;45632;-74
2024/02/21 07:30:15;;;;;;;;;9.50;8.50;;;;;9.72;76.46;101417.59;5070251;27;69413;-71
2024/02/21 07:32:40;;;;;;;;;11.50;10.50;;;;;9.73;76.28;101412.34;5059689;28;45338;-76
2024/02/21 07:35:10;;;;;;;;;16.25;10.75;;;;;9.77;76.32;101415.78;5071221;28;45584;-75
2024/02/21 07:37:37;;;;;;;;;17.50;7.75;;;;;9.80;76.49;101427.06;5075747;28;45674;-76
2024/02/21 07:40:03;;;;;;;;;12.00;8.25;;;;;9.84;76.55;101430.50;5069769;28;45506;-72
2024/02/21 07:42:28;;;;;;;;;12.25;9.25;;;;;9.85;76.34;101433.09;5058244;28;45555;-72
2024/02/21 07:44:56;;;;;;;;;12.50;10.00;;;;;9.88;75.85;101432.22;5068372;27;69160;-67
2024/02/21 07:47:21;;;;;;;;;13.25;9.75;;;;;9.91;76.17;101436.53;5069308;27;46853;-68
2024/02/21 07:49:48;;;;;;;;;10.25;9.25;;;;;9.93;76.26;101440.81;5066206;27;74238;-72
2024/02/21 07:52:14;;;;;;;;;9.25;8.25;;;;;9.99;76.16;101426.84;5064560;27;45276;-69
2024/02/21 07:54:39;;;;;;;;;12.00;11.25;;;;;10.03;76.11;101420.66;5068249;27;55515;-70
2024/02/21 07:57:04;;;;;;;;;10.00;9.75;;;;;10.07;75.95;101431.06;5065577;28;68477;-67
2024/02/21 07:59:30;;;;;;;;;15.50;11.00;;;;;10.13;76.04;101421.38;5070037;27;45407;-68
2024/02/21 08:01:57;;;;;;;;;15.00;10.75;;;;;10.17;76.14;101421.34;5071015;28;45416;-68
2024/02/21 08:04:22;;;;;;;;;14.00;9.75;;;;;10.19;75.44;101410.84;5075849;27;45712;-68
2024/02/21 08:06:53;;;;;;;;;14.25;12.25;;;;;10.24;75.52;101398.56;5062998;27;69327;-68
2024/02/21 08:09:18;;;;;;;;;10.25;8.25;;;;;10.27;75.59;101388.94;5066798;27;45996;-69
2024/02/21 08:11:44;;;;;;;;;11.50;8.75;;;;;10.32;75.45;101390.63;5071167;28;45488;-69
2024/02/21 08:14:09;;;;;;;;;13.50;11.25;;;;;10.34;75.31;101379.28;5069684;27;68132;-69
2024/02/21 08:16:34;;;;;;;;;11.50;7.75;;;;;10.37;75.25;101386.19;5071343;27;53754;-68
2024/02/21 08:19:01;;;;;;;;;12.75;10.75;;;;;10.40;74.71;101368.69;5071115;27;68333;-69
2024/02/21 08:21:27;;;;;;;;;9.25;6.25;;;;;10.40;74.50;101367.84;5074808;28;45966;-69
2024/02/21 08:23:54;;;;;;;;;12.75;11.25;;;;;10.40;74.49;101358.22;5072969;27;68361;-69
2024/02/21 08:26:19;;;;;;;;;12.00;10.00;;;;;10.42;74.76;101359.06;5070947;28;45474;-69
2024/02/21 08:28:44;;;;;;;;;16.00;11.00;;;;;10.42;74.32;101359.06;5048200;28;60621;-70
2024/02/21 08:31:10;;;;;;;;;15.25;11.25;;;;;10.44;74.27;101348.56;5073346;27;45366;-69
2024/02/21 08:33:35;;;;;;;;;14.75;10.50;;;;;10.46;74.20;101341.56;5083918;27;68818;-69
2024/02/21 08:36:00;;;;;;;;;8.00;8.00;;;;;10.47;74.53;101334.59;5079213;27;61307;-69
2024/02/21 08:38:26;;;;;;;;;13.75;10.25;;;;;10.53;74.08;101335.34;5069002;27;46179;-67
2024/02/21 08:40:51;;;;;;;;;7.25;6.25;;;;;10.56;74.27;101322.19;5067794;28;45236;-69
2024/02/21 08:43:16;;;;;;;;;13.25;12.00;;;;;10.60;74.43;101325.63;5074034;28;49300;-68
2024/02/21 08:45:42;;;;;;;;;11.75;11.00;;;;;10.63;74.24;101325.59;5076987;27;71804;-68
2024/02/21 08:48:08;;;;;;;;;13.00;10.50;;;;;10.65;74.09;101315.94;5072428;27;73804;-68
2024/02/21 08:50:33;;;;;;;;;13.75;9.25;;;;;10.71;74.18;101328.06;5077658;27;45823;-68
2024/02/21 08:52:58;;;;;;;;;14.00;9.25;;;;;10.71;73.88;101313.22;5065758;28;58783;-69
2024/02/21 08:55:24;;;;;;;;;17.00;11.75;;;;;10.74;74.08;101313.16;5059716;27;66988;-69
2024/02/21 08:57:50;;;;;;;;;17.50;11.00;;;;;10.80;73.38;101313.06;5071755;28;46154;-67
2024/02/21 09:00:16;;;;;;;;;13.25;12.50;;;;;10.86;73.59;101311.22;5073753;27;45751;-68
2024/02/21 09:02:44;;;;;;;;;13.50;10.50;;;;;10.94;73.52;101306.69;5066236;28;45276;-69
2024/02/21 09:05:10;;;;;;;;;17.00;11.25;;;;;10.99;73.20;101302.22;5071689;28;45330;-68
2024/02/21 09:07:36;;;;;;;;;17.50;10.50;;;;;11.07;73.36;101286.38;5074493;27;47302;-68
2024/02/21 09:10:01;;;;;;;;;10.50;8.00;;;;;11.12;73.13;101301.09;5076729;27;45376;-68
2024/02/21 09:12:26;;;;;;;;;12.50;8.75;;;;;11.17;72.89;101286.16;5075706;28;45359;-68
2024/02/21 09:14:52;;;;;;;;;14.00;12.00;;;;;11.25;72.54;101278.13;5078076;28;71909;-69
2024/02/21 09:17:17;;;;;;;;;2.75;0.00;;;;;11.28;72.43;101280.69;5066482;28;74442;-69
2024/02/21 09:19:44;;;;;;;;;11.00;7.00;;;;;11.34;72.48;101269.19;5075157;28;54384;-68
2024/02/21 09:22:09;;;;;;;;;14.75;8.75;;;;;11.37;71.91;101266.53;5075964;27;45513;-69
2024/02/21 09:24:34;;;;;;;;;12.25;9.00;;;;;11.40;71.68;101267.31;5068822;28;45390;-68
2024/02/21 09:27:00;;;;;;;;;11.25;7.25;;;;;11.43;71.37;101268.13;5067635;28;75537;-69
2024/02/21 09:29:25;;;;;;;;;9.25;7.75;;;;;11.47;71.45;101259.31;5074192;28;67905;-68
2024/02/21 09:31:51;;;;;;;;;14.50;9.75;;;;;11.50;71.37;101236.50;5074104;27;45442;-68
2024/02/21 09:34:16;;;;;;;;;12.75;9.00;;;;;11.51;71.11;101234.75;5067600;27;45388;-68
2024/02/21 09:36:41;;;;;;;;;11.25;10.25;;;;;11.56;71.20;101239.00;5072853;27;46064;-69
2024/02/21 09:39:07;;;;;;;;;13.25;9.00;;;;;11.60;71.34;101234.56;5063872;28;45369;-69
2024/02/21 09:41:36;;;;;;;;;16.00;9.50;;;;;11.64;70.96;101238.81;5082203;27;45422;-69
2024/02/21 09:44:02;;;;;;;;;10.00;10.00;;;;;11.69;70.62;101231.72;5089147;27;45320;-69
2024/02/21 09:47:04;;;;;;;;;8.50;8.25;;;;;11.75;70.51;101228.06;5061768;28;47110;-69
2024/02/21 09:49:34;;;;;;;;;12.25;10.00;;;;;11.77;70.13;101224.53;5064963;27;45888;-68
2024/02/21 09:52:04;;;;;;;;;12.00;9.25;;;;;11.76;70.34;101227.19;5068513;28;45371;-69
2024/02/21 09:54:31;;;;;;;;;9.25;9.25;;;;;11.77;70.00;101219.28;5068302;27;45438;-68
2024/02/21 09:56:56;;;;;;;;;14.50;11.25;;;;;11.79;70.08;101213.97;5080176;27;46091;-68
2024/02/21 09:59:22;;;;;;;;;13.00;8.75;;;;;11.83;69.95;101207.78;5081860;27;45186;-69
2024/02/21 10:01:47;;;;;;;;;14.25;9.00;;;;;11.86;69.87;101206.84;5066243;28;59815;-69
2024/02/21 10:04:13;;;;;;;;;8.75;8.50;;;;;11.87;69.42;101198.94;5081704;27;45296;-69
2024/02/21 10:06:38;;;;;;;;;9.25;7.75;;;;;11.95;69.71;101207.50;5065598;28;75345;-68
2024/02/21 10:09:06;;;;;;;;;13.75;8.00;;;;;12.02;69.80;101197.69;5070012;28;45232;-69
2024/02/21 10:11:31;;;;;;;;;10.25;7.25;;;;;12.07;69.34;101197.59;5067960;27;45377;-69
2024/02/21 10:14:06;;;;;;;;;13.00;9.50;;;;;12.13;69.43;101186.97;5081158;27;45374;-69
2024/02/21 10:16:32;;;;;;;;;12.25;10.25;;;;;12.24;69.26;101184.06;5068492;27;46251;-69
2024/02/21 10:18:57;;;;;;;;;11.50;7.50;;;;;12.30;68.61;101174.22;5080362;27;45399;-69
2024/02/21 10:21:22;;;;;;;;;9.75;7.00;;;;;12.34;68.83;101175.88;5080232;27;64777;-69
2024/02/21 10:23:49;;;;;;;;;9.00;7.00;;;;;12.41;68.29;101173.97;5067522;28;73271;-70
2024/02/21 10:26:15;;;;;;;;;12.50;9.00;;;;;12.45;68.58;101162.47;5073477;27;45505;-68
2024/02/21 10:28:48;;;;;;;;;11.00;7.75;;;;;12.56;68.35;101150.81;5076250;27;45368;-68
2024/02/21 10:31:27;;;;;;;;;10.25;8.75;;;;;12.61;67.98;101155.00;5076176;27;45347;-69
2024/02/21 10:33:57;;;;;;;;;9.75;8.75;;;;;12.67;67.82;101157.44;5077045;27;45372;-69
2024/02/21 10:36:24;;;;;;;;;8.25;8.00;;;;;12.69;67.43;101137.25;5063789;27;46142;-69
2024/02/21 10:38:49;;;;;;;;;16.50;10.00;;;;;12.76;67.26;101132.69;5076840;27;45885;-69
2024/02/21 10:41:17;;;;;;;;;10.50;9.00;;;;;12.82;67.01;101135.16;5074715;27;45324;-69
2024/02/21 10:43:50;;;;;;;;;12.25;10.25;;;;;12.89;67.08;101134.06;5064784;27;45296;-68
2024/02/21 10:46:18;;;;;;;;;12.00;9.50;;;;;13.01;66.96;101129.31;5071500;27;47185;-69
2024/02/21 10:48:45;;;;;;;;;7.50;7.50;;;;;13.04;66.84;101110.84;5076781;27;45697;-68
2024/02/21 10:51:19;;;;;;;;;11.50;9.25;;;;;13.09;66.50;101101.91;5074410;28;45411;-69
2024/02/21 10:53:53;;;;;;;;;10.50;9.75;;;;;13.15;66.51;101094.72;5071283;27;45623;-68
2024/02/21 10:56:37;;;;;;;;;8.50;7.00;;;;;13.20;66.52;101093.66;5073951;27;45469;-69
2024/02/21 10:59:03;;;;;;;;;13.00;10.00;;;;;13.22;66.23;101089.22;5069758;28;45352;-69
2024/02/21 11:01:31;;;;;;;;;9.00;8.50;;;;;13.25;65.88;101091.75;5073909;28;45297;-68
2024/02/21 11:03:58;;;;;;;;;14.75;9.75;;;;;13.27;66.00;101086.44;5069537;27;45386;-68
2024/02/21 11:06:24;;;;;;;;;9.25;8.75;;;;;13.29;65.89;101087.25;5077952;27;46556;-68
2024/02/21 11:09:04;;;;;;;;;12.25;7.75;;;;;13.32;65.99;101071.44;5079626;28;45284;-69